createdAt,value
2018-12-19T00:00:19.607Z,16.23
2018-12-19T00:02:48.735Z,16.17
2018-12-19T00:05:18.399Z,17.80
2018-12-19T00:07:47.603Z,16.77
2018-12-19T00:10:16.703Z,14.67
2018-12-19T00:12:45.691Z,17.53
2018-12-19T00:15:14.664Z,17.57
2018-12-19T00:17:43.599Z,15.10
2018-12-19T00:20:12.592Z,13.17
2018-12-19T00:22:41.691Z,15.90
2018-12-19T00:25:11.032Z,13.50
2018-12-19T00:27:40.414Z,15.77
2018-12-19T00:30:10.047Z,14.70
2018-12-19T00:32:39.577Z,15.10
2018-12-19T00:35:08.552Z,13.87
2018-12-19T00:37:37.631Z,16.27
2018-12-19T00:40:07.055Z,13.50
2018-12-19T00:42:36.311Z,13.83
2018-12-19T00:45:05.419Z,15.00
2018-12-19T00:47:34.557Z,16.87
2018-12-19T00:50:05.087Z,16.43
2018-12-19T00:52:34.199Z,15.00
2018-12-19T00:55:04.459Z,13.87
2018-12-19T00:57:33.579Z,16.50
2018-12-19T01:00:03.427Z,16.27
2018-12-19T01:02:32.579Z,14.10
2018-12-19T01:05:01.772Z,13.03
2018-12-19T01:07:30.925Z,13.17
2018-12-19T01:10:00.615Z,14.57
2018-12-19T01:12:30.863Z,14.43
2018-12-19T01:14:59.857Z,15.63
2018-12-19T01:17:29.061Z,15.23
2018-12-19T01:19:58.771Z,15.00
2018-12-19T01:22:27.769Z,12.73
2018-12-19T01:24:57.585Z,12.27
2018-12-19T01:27:26.784Z,15.13
2018-12-19T01:29:55.985Z,16.30
2018-12-19T01:32:24.982Z,16.13
2018-12-19T01:34:54.592Z,14.77
2018-12-19T01:37:23.895Z,15.20
2018-12-19T01:39:52.890Z,15.60
2018-12-19T01:42:22.708Z,15.37
2018-12-19T01:44:52.015Z,15.60
2018-12-19T01:47:21.635Z,17.73
2018-12-19T01:49:50.718Z,16.80
2018-12-19T01:52:19.795Z,16.17
2018-12-19T01:54:48.787Z,15.80
2018-12-19T01:57:17.743Z,14.87
2018-12-19T01:59:47.066Z,15.83
2018-12-19T02:02:16.109Z,14.57
2018-12-19T02:04:45.743Z,15.50
2018-12-19T02:07:14.843Z,16.37
2018-12-19T02:09:45.220Z,17.57
2018-12-19T02:12:14.963Z,14.30
2018-12-19T02:14:44.883Z,14.93
2018-12-19T02:17:14.178Z,14.47
2018-12-19T02:19:43.277Z,16.07
2018-12-19T02:22:12.477Z,13.23
2018-12-19T02:24:41.575Z,12.77
2018-12-19T02:27:10.572Z,14.57
2018-12-19T02:29:40.389Z,15.03
2018-12-19T02:32:09.384Z,16.23
2018-12-19T02:34:38.893Z,16.30
2018-12-19T02:37:07.990Z,13.80
2018-12-19T02:39:36.985Z,15.33
2018-12-19T02:42:06.189Z,13.27
2018-12-19T02:44:35.235Z,14.40
2018-12-19T02:47:04.285Z,13.93
2018-12-19T02:49:33.891Z,12.93
2018-12-19T02:52:03.093Z,15.77
2018-12-19T02:54:32.627Z,16.10
2018-12-19T02:57:01.699Z,11.77
2018-12-19T02:59:31.103Z,15.30
2018-12-19T03:02:00.304Z,12.60
2018-12-19T03:04:29.416Z,12.27
2018-12-19T03:06:58.372Z,15.70
2018-12-19T03:09:27.706Z,12.13
2018-12-19T03:11:56.964Z,12.50
2018-12-19T03:14:25.955Z,14.60
2018-12-19T03:16:55.151Z,13.03
2018-12-19T03:19:24.199Z,14.63
2018-12-19T03:21:53.399Z,14.10
2018-12-19T03:24:22.907Z,14.47
2018-12-19T03:26:51.903Z,12.47
2018-12-19T03:29:21.653Z,13.20
2018-12-19T03:31:50.722Z,12.80
2018-12-19T03:34:20.019Z,13.73
2018-12-19T03:36:50.037Z,11.37
2018-12-19T03:39:19.034Z,11.73
2018-12-19T03:41:48.476Z,10.67
2018-12-19T03:44:17.578Z,11.63
2018-12-19T03:46:46.905Z,12.93
2018-12-19T03:49:16.739Z,11.27
2018-12-19T03:51:46.060Z,11.87
2018-12-19T03:54:15.208Z,11.73
2018-12-19T03:56:44.571Z,12.10
2018-12-19T03:59:13.560Z,13.60
2018-12-19T04:01:42.529Z,14.00
2018-12-19T04:04:11.962Z,12.03
2018-12-19T04:06:41.063Z,13.07
2018-12-19T04:09:10.980Z,12.90
2018-12-19T04:11:39.978Z,13.47
2018-12-19T04:14:09.178Z,13.33
2018-12-19T04:16:38.324Z,10.97
2018-12-19T04:19:07.323Z,11.83
2018-12-19T04:21:36.320Z,11.63
2018-12-19T04:24:05.223Z,13.63
2018-12-19T04:26:34.292Z,11.77
2018-12-19T04:29:03.461Z,12.37
2018-12-19T04:31:32.459Z,13.03
2018-12-19T04:34:01.410Z,11.50
2018-12-19T04:36:30.654Z,12.20
2018-12-19T04:38:59.547Z,12.37
2018-12-19T04:41:28.537Z,13.23
2018-12-19T04:43:57.544Z,12.97
2018-12-19T04:46:26.524Z,12.57
2018-12-19T04:48:55.510Z,11.30
2018-12-19T04:51:24.740Z,11.07
2018-12-19T04:53:53.731Z,12.33
2018-12-19T04:56:23.544Z,15.60
2018-12-19T04:58:53.258Z,12.30
2018-12-19T05:01:22.332Z,11.57
2018-12-19T05:03:51.355Z,12.17
2018-12-19T05:06:20.423Z,12.90
2018-12-19T05:08:50.064Z,11.03
2018-12-19T05:11:19.162Z,12.37
2018-12-19T05:13:48.366Z,14.27
2018-12-19T05:16:17.312Z,11.90
2018-12-19T05:18:46.415Z,12.93
2018-12-19T05:21:15.383Z,13.80
2018-12-19T05:23:44.479Z,12.43
2018-12-19T05:26:13.751Z,12.73
2018-12-19T05:28:42.847Z,12.90
2018-12-19T05:31:11.840Z,13.87
2018-12-19T05:33:41.151Z,11.23
2018-12-19T05:36:10.903Z,14.40
2018-12-19T05:38:39.881Z,12.77
2018-12-19T05:41:08.958Z,14.07
2018-12-19T05:43:38.261Z,12.70
2018-12-19T05:46:07.258Z,12.20
2018-12-19T05:48:36.660Z,13.60
2018-12-19T05:51:05.759Z,11.53
2018-12-19T05:53:34.858Z,12.10
2018-12-19T05:56:03.879Z,10.50
2018-12-19T05:58:33.067Z,11.77
2018-12-19T06:01:02.143Z,11.00
2018-12-19T06:06:07.392Z,12.00
2018-12-19T06:08:36.613Z,12.60
2018-12-19T06:11:05.592Z,11.63
2018-12-19T06:13:34.812Z,12.50
2018-12-19T06:16:03.863Z,10.50
2018-12-19T06:18:32.973Z,12.00
2018-12-19T06:21:01.951Z,11.20
2018-12-19T06:23:31.306Z,11.73
2018-12-19T06:26:00.930Z,10.00
2018-12-19T06:28:30.039Z,9.97
2018-12-19T06:30:59.113Z,9.37
2018-12-19T06:33:28.211Z,8.70
2018-12-19T06:35:57.108Z,8.83
2018-12-19T06:38:26.103Z,9.30
2018-12-19T06:40:55.404Z,11.07
2018-12-19T06:43:24.809Z,9.67
2018-12-19T06:45:54.113Z,9.97
2018-12-19T06:48:23.015Z,10.20
2018-12-19T06:50:52.002Z,8.50
2018-12-19T06:53:21.100Z,8.23
2018-12-19T06:55:50.098Z,8.43
2018-12-19T06:58:19.812Z,9.10
2018-12-19T07:00:48.911Z,9.43
2018-12-19T07:03:18.518Z,10.00
2018-12-19T07:05:47.587Z,9.87
2018-12-19T07:08:16.509Z,9.93
2018-12-19T07:10:45.608Z,8.43
2018-12-19T07:13:14.605Z,11.03
2018-12-19T07:15:43.707Z,10.23
2018-12-19T07:18:13.007Z,9.27
2018-12-19T07:20:42.207Z,9.10
2018-12-19T07:23:11.613Z,10.37
2018-12-19T07:25:40.915Z,14.07
2018-12-19T07:28:10.200Z,9.23
2018-12-19T07:30:39.526Z,10.70
2018-12-19T07:33:08.635Z,10.20
2018-12-19T07:35:37.831Z,8.93
2018-12-19T07:38:07.024Z,10.27
2018-12-19T07:40:36.324Z,9.13
2018-12-19T07:43:06.037Z,9.17
2018-12-19T07:45:34.930Z,9.03
2018-12-19T07:48:04.336Z,9.03
2018-12-19T07:50:33.293Z,7.43
2018-12-19T07:53:02.807Z,8.37
2018-12-19T07:55:33.751Z,8.27
2018-12-19T07:58:02.879Z,7.40
2018-12-19T08:00:31.945Z,8.17
2018-12-19T08:03:01.101Z,9.30
2018-12-19T08:05:30.183Z,7.30
2018-12-19T08:07:59.784Z,9.27
2018-12-19T08:10:29.051Z,7.43
2018-12-19T08:12:58.011Z,6.37
2018-12-19T08:15:27.099Z,9.70
2018-12-19T08:17:56.278Z,7.13
2018-12-19T08:20:25.427Z,7.93
2018-12-19T08:22:54.474Z,6.83
2018-12-19T08:25:23.675Z,7.80
2018-12-19T08:27:52.796Z,8.33
2018-12-19T08:30:21.687Z,6.87
2018-12-19T08:32:50.970Z,9.67
2018-12-19T08:35:20.476Z,7.27
2018-12-19T08:37:49.678Z,8.10
2018-12-19T08:40:18.947Z,8.00
2018-12-19T08:42:47.979Z,8.20
2018-12-19T08:45:17.484Z,8.13
2018-12-19T08:47:46.377Z,8.00
2018-12-19T08:50:15.499Z,8.00
2018-12-19T08:52:44.787Z,8.77
2018-12-19T08:55:13.774Z,8.77
2018-12-19T08:57:42.772Z,7.23
2018-12-19T09:00:12.277Z,8.37
2018-12-19T09:02:41.239Z,7.77
2018-12-19T09:05:10.231Z,6.67
2018-12-19T09:07:39.368Z,8.40
2018-12-19T09:10:08.591Z,7.77
2018-12-19T09:12:37.563Z,8.97
2018-12-19T09:15:07.184Z,6.60
2018-12-19T09:17:36.477Z,9.63
2018-12-19T09:20:06.395Z,8.40
2018-12-19T09:22:35.389Z,7.23
2018-12-19T09:25:05.131Z,7.33
2018-12-19T09:27:34.220Z,6.37
2018-12-19T09:30:04.327Z,7.07
2018-12-19T09:32:33.521Z,7.07
2018-12-19T09:35:02.891Z,7.00
2018-12-19T09:37:33.119Z,9.40
2018-12-19T09:40:02.611Z,9.10
2018-12-19T09:42:31.511Z,8.93
2018-12-19T09:45:00.651Z,7.30
2018-12-19T09:47:29.615Z,8.03
2018-12-19T09:49:58.948Z,6.90
2018-12-19T09:52:28.355Z,6.30
2018-12-19T09:54:58.183Z,6.33
2018-12-19T09:57:27.388Z,8.80
2018-12-19T09:59:56.724Z,8.37
2018-12-19T10:02:25.699Z,8.23
2018-12-19T10:04:54.615Z,7.37
2018-12-19T10:07:23.861Z,7.50
2018-12-19T10:09:53.615Z,6.50
2018-12-19T10:12:22.603Z,7.03
2018-12-19T10:14:51.564Z,6.43
2018-12-19T10:17:20.531Z,8.00
2018-12-19T10:19:49.559Z,7.47
2018-12-19T10:22:21.679Z,8.43
2018-12-19T10:24:56.553Z,6.47
2018-12-19T10:27:25.698Z,8.53
2018-12-19T10:29:54.784Z,7.23
2018-12-19T10:32:24.054Z,8.57
2018-12-19T10:34:53.699Z,7.00
2018-12-19T10:37:23.002Z,7.83
2018-12-19T10:39:52.093Z,7.77
2018-12-19T10:42:21.183Z,7.23
2018-12-19T10:44:50.464Z,7.03
2018-12-19T10:47:19.463Z,7.47
2018-12-19T10:49:48.559Z,7.80
2018-12-19T10:52:17.619Z,5.67
2018-12-19T10:54:46.795Z,6.13
2018-12-19T10:57:15.779Z,6.07
2018-12-19T10:59:44.852Z,6.40
2018-12-19T11:02:14.191Z,8.57
2018-12-19T11:04:43.175Z,6.17
2018-12-19T11:07:12.823Z,6.33
2018-12-19T11:09:41.719Z,7.83
2018-12-19T11:12:10.751Z,6.37
2018-12-19T11:14:40.361Z,7.33
2018-12-19T11:17:09.630Z,6.37
2018-12-19T11:19:38.600Z,6.80
2018-12-19T11:22:09.573Z,7.73
2018-12-19T11:24:38.903Z,5.90
2018-12-19T11:27:07.897Z,5.50
2018-12-19T11:29:36.859Z,7.70
2018-12-19T11:32:05.835Z,6.37
2018-12-19T11:34:34.987Z,5.23
2018-12-19T11:37:03.943Z,7.13
2018-12-19T11:39:32.978Z,7.47
2018-12-19T11:42:01.973Z,6.80
2018-12-19T11:44:31.037Z,6.47
2018-12-19T11:47:00.887Z,7.00
2018-12-19T11:49:30.088Z,7.90
2018-12-19T11:51:59.185Z,7.57
2018-12-19T11:54:28.931Z,6.30
2018-12-19T11:56:58.098Z,7.03
2018-12-19T11:59:27.093Z,6.00
2018-12-19T12:01:56.293Z,5.97
2018-12-19T12:04:25.703Z,7.30
2018-12-19T12:06:54.799Z,7.30
2018-12-19T12:09:23.700Z,7.13
2018-12-19T12:11:53.275Z,6.43
2018-12-19T12:14:22.252Z,6.03
2018-12-19T12:16:51.151Z,5.27
2018-12-19T12:19:20.259Z,5.97
2018-12-19T12:21:49.231Z,6.60
2018-12-19T12:24:18.382Z,8.20
2018-12-19T12:26:47.379Z,7.33
2018-12-19T12:29:16.477Z,5.40
2018-12-19T12:31:45.778Z,7.07
2018-12-19T12:34:14.877Z,6.37
2018-12-19T12:36:43.839Z,8.23
2018-12-19T12:39:12.932Z,8.60
2018-12-19T12:41:42.172Z,6.60
2018-12-19T12:44:11.168Z,7.30
2018-12-19T12:46:40.061Z,6.17
2018-12-19T12:49:09.396Z,6.43
2018-12-19T12:51:39.076Z,6.83
2018-12-19T12:54:08.379Z,6.90
2018-12-19T12:56:37.377Z,7.27
2018-12-19T12:59:06.439Z,6.20
2018-12-19T13:01:35.469Z,6.10
2018-12-19T13:04:04.567Z,5.90
2018-12-19T13:06:33.709Z,7.73
2018-12-19T13:09:04.203Z,7.17
2018-12-19T13:11:33.396Z,6.47
2018-12-19T13:14:02.702Z,7.90
2018-12-19T13:16:32.291Z,6.40
2018-12-19T13:19:01.264Z,6.53
2018-12-19T13:21:30.552Z,8.40
2018-12-19T13:23:59.739Z,6.87
2018-12-19T13:26:28.839Z,6.50
2018-12-19T13:28:58.335Z,6.30
2018-12-19T13:31:27.291Z,6.20
2018-12-19T13:33:56.304Z,6.17
2018-12-19T13:36:25.250Z,6.23
2018-12-19T13:38:54.194Z,8.57
2018-12-19T13:41:23.189Z,8.23
2018-12-19T13:43:52.812Z,7.83
2018-12-19T13:46:22.423Z,7.47
2018-12-19T13:48:51.427Z,8.83
2018-12-19T13:51:20.608Z,8.20
2018-12-19T13:53:49.691Z,7.17
2018-12-19T13:56:19.035Z,7.40
2018-12-19T13:58:48.359Z,8.93
2018-12-19T14:01:17.615Z,9.50
2018-12-19T14:03:47.119Z,9.60
2018-12-19T14:06:16.117Z,8.20
2018-12-19T14:08:45.120Z,10.40
2018-12-19T14:11:14.106Z,7.33
2018-12-19T14:13:43.867Z,8.37
2018-12-19T14:16:12.831Z,9.83
2018-12-19T14:18:41.913Z,7.27
2018-12-19T14:21:11.735Z,8.90
2018-12-19T14:23:40.963Z,8.30
2018-12-19T14:26:10.231Z,8.03
2018-12-19T14:28:39.103Z,9.13
2018-12-19T14:31:09.041Z,8.93
2018-12-19T14:33:38.349Z,10.33
2018-12-19T14:36:07.291Z,9.90
2018-12-19T14:38:36.233Z,9.07
2018-12-19T14:41:05.288Z,7.97
2018-12-19T14:43:34.394Z,10.43
2018-12-19T14:46:03.375Z,9.90
2018-12-19T14:48:32.368Z,9.33
2018-12-19T14:51:01.620Z,7.90
2018-12-19T14:53:30.722Z,7.17
2018-12-19T14:56:00.226Z,8.53
2018-12-19T14:58:29.375Z,9.57
2018-12-19T15:00:58.394Z,10.50
2018-12-19T15:03:27.296Z,8.80
2018-12-19T15:05:56.826Z,9.07
2018-12-19T15:08:25.718Z,9.03
2018-12-19T15:10:55.371Z,10.17
2018-12-19T15:13:24.339Z,9.50
2018-12-19T15:15:58.907Z,10.77
2018-12-19T15:18:28.313Z,9.20
2018-12-19T15:20:57.759Z,9.17
2018-12-19T15:23:26.651Z,10.20
2018-12-19T15:25:55.749Z,10.17
2018-12-19T15:28:24.880Z,11.43
2018-12-19T15:30:54.823Z,11.10
2018-12-19T15:33:23.803Z,13.03
2018-12-19T15:35:53.169Z,9.63
2018-12-19T15:38:23.088Z,11.70
2018-12-19T15:40:52.185Z,12.90
2018-12-19T15:43:21.156Z,12.13
2018-12-19T15:45:50.176Z,10.40
2018-12-19T15:48:19.252Z,15.40
2018-12-19T15:50:48.379Z,13.13
2018-12-19T15:53:17.357Z,12.17
2018-12-19T15:55:46.435Z,14.73
2018-12-19T15:58:16.282Z,12.60
2018-12-19T16:00:45.381Z,13.20
2018-12-19T16:03:14.381Z,14.33
2018-12-19T16:05:43.579Z,16.97
2018-12-19T16:10:43.516Z,12.50
2018-12-19T16:13:12.716Z,14.63
2018-12-19T16:15:42.068Z,16.70
2018-12-19T16:18:11.075Z,14.53
2018-12-19T16:20:40.059Z,14.97
2018-12-19T16:23:09.109Z,14.23
2018-12-19T16:25:38.210Z,13.27
2018-12-19T16:28:07.306Z,17.00
2018-12-19T16:30:36.406Z,14.40
2018-12-19T16:33:06.004Z,18.23
2018-12-19T16:35:35.099Z,14.53
2018-12-19T16:38:04.737Z,16.40
2018-12-19T16:40:34.026Z,13.93
2018-12-19T16:43:02.974Z,17.70
2018-12-19T16:45:32.084Z,14.90
2018-12-19T16:48:01.219Z,12.67
2018-12-19T16:50:30.328Z,16.37
2018-12-19T16:52:59.418Z,14.73
2018-12-19T16:55:28.369Z,13.17
2018-12-19T16:57:57.339Z,16.40
2018-12-19T17:00:26.462Z,13.53
2018-12-19T17:02:55.607Z,13.70
2018-12-19T17:05:24.807Z,15.97
2018-12-19T17:07:53.751Z,16.33
2018-12-19T17:10:22.867Z,17.70
2018-12-19T17:12:52.972Z,17.83
2018-12-19T17:15:22.121Z,13.77
2018-12-19T17:17:51.075Z,15.47
2018-12-19T17:20:20.051Z,14.93
2018-12-19T17:22:49.111Z,14.17
2018-12-19T17:25:18.063Z,16.73
2018-12-19T17:27:47.205Z,13.50
2018-12-19T17:30:16.303Z,13.67
2018-12-19T17:32:45.391Z,15.47
2018-12-19T17:35:14.397Z,14.53
2018-12-19T17:37:43.395Z,15.90
2018-12-19T17:40:12.935Z,15.47
2018-12-19T17:42:42.822Z,17.47
2018-12-19T17:45:11.979Z,14.03
2018-12-19T17:47:41.118Z,15.07
2018-12-19T17:50:10.161Z,13.83
2018-12-19T17:52:39.139Z,14.63
2018-12-19T17:55:08.231Z,15.37
2018-12-19T17:57:37.135Z,14.83
2018-12-19T18:00:06.714Z,16.47
2018-12-19T18:02:35.811Z,14.57
2018-12-19T18:05:05.730Z,16.60
2018-12-19T18:07:34.834Z,15.67
2018-12-19T18:10:04.234Z,15.67
2018-12-19T18:12:33.128Z,12.37
2018-12-19T18:15:02.954Z,15.90
2018-12-19T18:17:32.055Z,17.03
2018-12-19T18:20:01.152Z,15.30
2018-12-19T18:22:30.260Z,16.87
2018-12-19T18:24:59.745Z,16.30
2018-12-19T18:27:29.459Z,15.57
2018-12-19T18:29:58.348Z,18.03
2018-12-19T18:32:27.862Z,15.53
2018-12-19T18:34:56.855Z,17.37
2018-12-19T18:37:26.057Z,16.10
2018-12-19T18:39:55.139Z,13.53
2018-12-19T18:42:24.623Z,16.23
2018-12-19T18:44:53.728Z,16.73
2018-12-19T18:47:22.819Z,17.40
2018-12-19T18:49:51.754Z,18.73
2018-12-19T18:52:20.956Z,15.97
2018-12-19T18:54:50.062Z,17.53
2018-12-19T18:57:19.153Z,19.07
2018-12-19T18:59:48.132Z,18.40
2018-12-19T19:02:17.255Z,16.87
2018-12-19T19:04:46.222Z,19.37
2018-12-19T19:07:15.343Z,19.00
2018-12-19T19:09:44.252Z,17.07
2018-12-19T19:12:13.439Z,19.47
2018-12-19T19:14:42.842Z,20.33
2018-12-19T19:17:11.941Z,18.87
2018-12-19T19:19:41.085Z,18.07
2018-12-19T19:22:10.195Z,19.50
2018-12-19T19:24:39.340Z,17.27
2018-12-19T19:27:08.673Z,22.70
2018-12-19T19:32:17.023Z,20.30
2018-12-19T19:34:46.171Z,21.50
2018-12-19T19:37:15.731Z,22.30
2018-12-19T19:39:44.847Z,22.97
2018-12-19T19:42:14.143Z,25.37
2018-12-19T19:44:43.204Z,18.47
2018-12-19T19:47:12.381Z,24.63
2018-12-19T19:49:41.583Z,21.50
2018-12-19T19:52:10.667Z,23.00
2018-12-19T19:54:39.639Z,24.47
2018-12-19T19:57:08.980Z,25.50
2018-12-19T19:59:38.078Z,24.20
2018-12-19T20:02:07.135Z,25.70
2018-12-19T20:04:36.278Z,30.10
2018-12-19T20:07:05.377Z,26.97
2018-12-19T20:09:34.646Z,28.23
2018-12-19T20:12:04.291Z,33.23
2018-12-19T20:14:33.589Z,33.97
2018-12-19T20:17:02.995Z,35.27
2018-12-19T20:19:31.994Z,32.63
2018-12-19T20:22:01.207Z,30.13
2018-12-19T20:24:30.290Z,35.40
2018-12-19T20:26:59.594Z,32.33
2018-12-19T20:29:28.685Z,28.20
2018-12-19T20:31:57.796Z,32.93
2018-12-19T20:34:27.614Z,34.33
2018-12-19T20:36:56.745Z,32.60
2018-12-19T20:39:26.208Z,26.00
2018-12-19T20:41:55.413Z,28.63
2018-12-19T20:44:24.713Z,34.97
2018-12-19T20:46:53.806Z,32.57
2018-12-19T20:49:23.527Z,30.53
2018-12-19T20:51:52.472Z,28.73
2018-12-19T20:54:21.594Z,33.80
2018-12-19T20:56:50.756Z,30.77
2018-12-19T20:59:19.930Z,28.10
2018-12-19T21:01:49.159Z,32.60
2018-12-19T21:04:18.274Z,32.47
2018-12-19T21:06:47.314Z,31.53
2018-12-19T21:09:16.516Z,28.13
2018-12-19T21:11:45.887Z,29.00
2018-12-19T21:14:15.118Z,31.07
2018-12-19T21:16:50.051Z,30.43
2018-12-19T21:19:19.167Z,34.60
2018-12-19T21:21:48.276Z,37.27
2018-12-19T21:24:17.347Z,36.70
2018-12-19T21:26:46.342Z,35.20
2018-12-19T21:29:15.338Z,36.67
2018-12-19T21:31:44.640Z,40.63
2018-12-19T21:34:13.743Z,39.37
2018-12-19T21:36:42.840Z,40.93
2018-12-19T21:39:11.959Z,39.73
2018-12-19T21:41:41.080Z,37.90
2018-12-19T21:44:10.337Z,41.77
2018-12-19T21:46:39.372Z,39.37
2018-12-19T21:49:08.519Z,33.80
2018-12-19T21:51:37.837Z,36.47
2018-12-19T21:54:07.446Z,36.17
2018-12-19T21:56:37.569Z,42.20
2018-12-19T21:59:06.669Z,39.70
2018-12-19T22:01:35.711Z,39.13
2018-12-19T22:04:04.832Z,42.80
2018-12-19T22:06:34.015Z,45.10
2018-12-19T22:09:06.897Z,45.70
2018-12-19T22:11:36.048Z,45.00
2018-12-19T22:14:05.453Z,43.30
2018-12-19T22:16:40.185Z,47.83
2018-12-19T22:19:09.314Z,44.80
2018-12-19T22:21:39.302Z,46.07
2018-12-19T22:24:09.016Z,43.10
2018-12-19T22:26:38.318Z,49.40
2018-12-19T22:29:07.694Z,46.47
2018-12-19T22:31:36.920Z,44.73
2018-12-19T22:34:06.235Z,48.77
2018-12-19T22:36:35.441Z,47.67
2018-12-19T22:39:07.763Z,45.07
2018-12-19T22:41:36.915Z,43.70
2018-12-19T22:44:08.088Z,43.13
2018-12-19T22:46:37.254Z,42.87
2018-12-19T22:49:06.463Z,48.27
2018-12-19T22:51:35.719Z,53.93
2018-12-19T22:54:05.334Z,46.40
2018-12-19T22:56:34.453Z,49.20
2018-12-19T22:59:03.696Z,51.63
2018-12-19T23:01:39.615Z,53.43
2018-12-19T23:04:08.808Z,42.50
2018-12-19T23:06:37.909Z,46.57
2018-12-19T23:09:07.136Z,44.40
2018-12-19T23:11:36.358Z,37.43
2018-12-19T23:14:05.612Z,37.23
2018-12-19T23:16:35.017Z,43.87
2018-12-19T23:19:05.187Z,34.03
2018-12-19T23:21:34.286Z,38.00
2018-12-19T23:24:03.383Z,38.60
2018-12-19T23:26:32.587Z,40.03
2018-12-19T23:29:02.791Z,34.37
2018-12-19T23:31:32.214Z,38.90
2018-12-19T23:34:01.264Z,35.90
2018-12-19T23:36:30.770Z,39.00
2018-12-19T23:39:00.855Z,33.07
2018-12-19T23:41:30.969Z,37.93
2018-12-19T23:44:00.241Z,32.50
2018-12-19T23:46:31.573Z,37.27
2018-12-19T23:49:01.127Z,36.03
2018-12-19T23:51:30.236Z,35.87
2018-12-19T23:53:59.275Z,36.43
2018-12-19T23:56:28.472Z,34.23
2018-12-19T23:58:57.570Z,34.93
